Terminal Aerodrome Forecast
Issued by NWS Cleveland, OH

Home | Current Version | Previous Version | Graphics & Text | Print | Product List | Glossary Off
Versions: 1 2 3 4 5 6 7 8 9 10 11 12 13

000
FTUS41 KCLE 202300
TAFERI
TAF
KERI 202326Z 2100/2124 18008KT P6SM SCT070
     FM210900 20004KT P6SM BKN100
      TEMPO 2110/2112 4SM BR
     FM211300 23008KT P6SM BKN050
     FM211800 27010KT P6SM BKN035 PROB30 2120/2124 3SM TSRA
      OVC025CB=

USA.gov is the U.S. government's official web portal to all federal, state and local government web resources and services.